sensor_id;sensor_type;location;lat;lon;timestamp;pressure;altitude;pressure_sealevel;temperature;humidity
84267;BME280;74414;51.098;13.716;2024-01-15T00:00:40;98117.00;;;1.57;67.69
84267;BME280;74414;51.098;13.716;2024-01-15T00:03:06;98103.44;;;1.60;67.37
84267;BME280;74414;51.098;13.716;2024-01-15T00:05:32;98104.25;;;1.61;66.92
84267;BME280;74414;51.098;13.716;2024-01-15T00:07:57;98087.06;;;1.60;67.41
84267;BME280;74414;51.098;13.716;2024-01-15T00:10:23;98100.28;;;1.58;67.22
84267;BME280;74414;51.098;13.716;2024-01-15T00:12:48;98085.16;;;1.61;66.96
84267;BME280;74414;51.098;13.716;2024-01-15T00:15:14;98084.03;;;1.62;67.00
84267;BME280;74414;51.098;13.716;2024-01-15T00:17:40;98089.03;;;1.60;66.86
84267;BME280;74414;51.098;13.716;2024-01-15T00:20:06;98086.31;;;1.60;67.51
84267;BME280;74414;51.098;13.716;2024-01-15T00:22:32;98092.91;;;1.59;67.38
84267;BME280;74414;51.098;13.716;2024-01-15T00:24:58;98082.78;;;1.59;67.73
84267;BME280;74414;51.098;13.716;2024-01-15T00:27:23;98088.94;;;1.56;67.47
84267;BME280;74414;51.098;13.716;2024-01-15T00:29:49;98080.75;;;1.56;67.53
84267;BME280;74414;51.098;13.716;2024-01-15T00:32:19;98079.53;;;1.54;67.21
84267;BME280;74414;51.098;13.716;2024-01-15T00:34:45;98073.66;;;1.52;67.57
84267;BME280;74414;51.098;13.716;2024-01-15T00:37:11;98069.31;;;1.51;67.36
84267;BME280;74414;51.098;13.716;2024-01-15T00:39:37;98070.13;;;1.51;67.89
84267;BME280;74414;51.098;13.716;2024-01-15T00:42:02;98074.41;;;1.52;67.30
84267;BME280;74414;51.098;13.716;2024-01-15T00:44:28;98070.94;;;1.52;67.66
84267;BME280;74414;51.098;13.716;2024-01-15T00:46:53;98066.16;;;1.49;68.36
84267;BME280;74414;51.098;13.716;2024-01-15T00:49:19;98066.88;;;1.46;68.03
84267;BME280;74414;51.098;13.716;2024-01-15T00:51:44;98073.91;;;1.47;67.25
84267;BME280;74414;51.098;13.716;2024-01-15T00:54:09;98061.44;;;1.46;67.28
84267;BME280;74414;51.098;13.716;2024-01-15T00:56:35;98056.66;;;1.43;67.59
84267;BME280;74414;51.098;13.716;2024-01-15T00:59:00;98050.44;;;1.42;67.36
84267;BME280;74414;51.098;13.716;2024-01-15T01:01:26;98058.28;;;1.44;67.75
84267;BME280;74414;51.098;13.716;2024-01-15T01:03:51;98049.22;;;1.40;67.13
84267;BME280;74414;51.098;13.716;2024-01-15T01:06:17;98039.47;;;1.39;66.97
84267;BME280;74414;51.098;13.716;2024-01-15T01:08:42;98051.06;;;1.36;67.55
84267;BME280;74414;51.098;13.716;2024-01-15T01:11:12;98046.34;;;1.33;67.45
84267;BME280;74414;51.098;13.716;2024-01-15T01:13:38;98045.19;;;1.34;67.57
84267;BME280;74414;51.098;13.716;2024-01-15T01:16:03;98032.34;;;1.34;67.46
84267;BME280;74414;51.098;13.716;2024-01-15T01:18:29;98025.94;;;1.27;67.59
84267;BME280;74414;51.098;13.716;2024-01-15T01:20:55;98031.66;;;1.22;67.70
84267;BME280;74414;51.098;13.716;2024-01-15T01:23:20;98025.75;;;1.20;68.01
84267;BME280;74414;51.098;13.716;2024-01-15T01:25:45;98019.88;;;1.18;68.10
84267;BME280;74414;51.098;13.716;2024-01-15T01:28:11;98024.91;;;1.16;68.15
84267;BME280;74414;51.098;13.716;2024-01-15T01:30:36;98030.78;;;1.18;67.71
84267;BME280;74414;51.098;13.716;2024-01-15T01:33:01;98017.13;;;1.18;67.99
84267;BME280;74414;51.098;13.716;2024-01-15T01:35:27;98013.22;;;1.15;68.45
84267;BME280;74414;51.098;13.716;2024-01-15T01:37:52;98016.63;;;1.12;68.13
84267;BME280;74414;51.098;13.716;2024-01-15T01:40:17;98003.00;;;1.12;68.21
84267;BME280;74414;51.098;13.716;2024-01-15T01:42:43;98006.88;;;1.11;67.99
84267;BME280;74414;51.098;13.716;2024-01-15T01:45:08;98007.75;;;1.15;68.38
84267;BME280;74414;51.098;13.716;2024-01-15T01:47:34;98018.75;;;1.19;68.00
84267;BME280;74414;51.098;13.716;2024-01-15T01:49:59;98015.22;;;1.18;67.91
84267;BME280;74414;51.098;13.716;2024-01-15T01:52:26;98014.84;;;1.20;67.80
84267;BME280;74414;51.098;13.716;2024-01-15T01:54:52;98013.28;;;1.19;67.89
84267;BME280;74414;51.098;13.716;2024-01-15T01:57:18;98012.13;;;1.20;67.63
84267;BME280;74414;51.098;13.716;2024-01-15T01:59:44;98009.41;;;1.20;67.07
84267;BME280;74414;51.098;13.716;2024-01-15T02:02:11;98009.41;;;1.20;67.29
84267;BME280;74414;51.098;13.716;2024-01-15T02:04:36;98002.03;;;1.20;67.08
84267;BME280;74414;51.098;13.716;2024-01-15T02:07:03;97997.00;;;1.22;67.34
84267;BME280;74414;51.098;13.716;2024-01-15T02:09:29;98000.09;;;1.21;67.41
84267;BME280;74414;51.098;13.716;2024-01-15T02:11:55;98003.19;;;1.19;67.60
84267;BME280;74414;51.098;13.716;2024-01-15T02:14:21;98004.75;;;1.20;66.99
84267;BME280;74414;51.098;13.716;2024-01-15T02:16:47;97999.66;;;1.19;66.87
84267;BME280;74414;51.098;13.716;2024-01-15T02:19:17;97990.69;;;1.18;66.74
84267;BME280;74414;51.098;13.716;2024-01-15T02:21:43;97998.41;;;1.16;66.88
84267;BME280;74414;51.098;13.716;2024-01-15T02:24:09;97991.41;;;1.15;66.72
84267;BME280;74414;51.098;13.716;2024-01-15T02:26:35;97998.06;;;1.18;66.54
84267;BME280;74414;51.098;13.716;2024-01-15T02:29:04;97994.13;;;1.15;66.79
84267;BME280;74414;51.098;13.716;2024-01-15T02:31:31;97970.72;;;1.14;67.07
84267;BME280;74414;51.098;13.716;2024-01-15T02:33:57;97982.00;;;1.13;67.31
84267;BME280;74414;51.098;13.716;2024-01-15T02:36:23;97982.00;;;1.13;67.68
84267;BME280;74414;51.098;13.716;2024-01-15T02:38:49;97977.69;;;1.12;67.59
84267;BME280;74414;51.098;13.716;2024-01-15T02:41:15;97971.38;;;1.08;67.73
84267;BME280;74414;51.098;13.716;2024-01-15T02:43:41;97981.84;;;1.06;67.62
84267;BME280;74414;51.098;13.716;2024-01-15T02:46:07;97970.50;;;1.04;67.53
84267;BME280;74414;51.098;13.716;2024-01-15T02:48:33;97975.50;;;1.02;67.56
84267;BME280;74414;51.098;13.716;2024-01-15T02:51:01;97961.91;;;1.02;67.58
84267;BME280;74414;51.098;13.716;2024-01-15T02:53:27;97968.47;;;1.01;67.26
84267;BME280;74414;51.098;13.716;2024-01-15T02:55:52;97964.63;;;1.02;67.43
84267;BME280;74414;51.098;13.716;2024-01-15T02:58:18;97965.75;;;1.01;66.96
84267;BME280;74414;51.098;13.716;2024-01-15T03:00:44;97958.28;;;0.98;67.60
84267;BME280;74414;51.098;13.716;2024-01-15T03:03:12;97959.41;;;0.97;67.49
84267;BME280;74414;51.098;13.716;2024-01-15T03:05:38;97964.88;;;0.97;67.16
84267;BME280;74414;51.098;13.716;2024-01-15T03:08:04;97958.97;;;0.94;67.24
84267;BME280;74414;51.098;13.716;2024-01-15T03:10:29;97951.97;;;0.93;67.30
84267;BME280;74414;51.098;13.716;2024-01-15T03:12:57;97967.09;;;0.91;67.39
84267;BME280;74414;51.098;13.716;2024-01-15T03:15:23;97957.41;;;0.93;67.49
84267;BME280;74414;51.098;13.716;2024-01-15T03:17:49;97967.53;;;0.93;67.14
84267;BME280;74414;51.098;13.716;2024-01-15T03:20:16;97967.53;;;0.93;67.36
84267;BME280;74414;51.098;13.716;2024-01-15T03:22:42;97957.34;;;0.90;67.26
84267;BME280;74414;51.098;13.716;2024-01-15T03:25:08;97963.47;;;0.87;67.27
84267;BME280;74414;51.098;13.716;2024-01-15T03:27:34;97969.38;;;0.89;67.50
84267;BME280;74414;51.098;13.716;2024-01-15T03:30:00;97955.75;;;0.89;67.01
84267;BME280;74414;51.098;13.716;2024-01-15T03:32:28;97966.31;;;0.90;67.26
84267;BME280;74414;51.098;13.716;2024-01-15T03:34:54;97961.19;;;0.89;66.81
84267;BME280;74414;51.098;13.716;2024-01-15T03:37:20;97971.31;;;0.88;67.13
84267;BME280;74414;51.098;13.716;2024-01-15T03:39:46;97968.59;;;0.88;66.86
84267;BME280;74414;51.098;13.716;2024-01-15T03:42:12;97975.97;;;0.88;67.00
84267;BME280;74414;51.098;13.716;2024-01-15T03:44:37;97981.78;;;0.86;67.25
84267;BME280;74414;51.098;13.716;2024-01-15T03:47:04;97975.53;;;0.86;67.21
84267;BME280;74414;51.098;13.716;2024-01-15T03:49:29;97986.00;;;0.84;67.36
84267;BME280;74414;51.098;13.716;2024-01-15T03:51:55;97981.66;;;0.83;67.15
84267;BME280;74414;51.098;13.716;2024-01-15T03:54:21;97969.56;;;0.80;67.34
84267;BME280;74414;51.098;13.716;2024-01-15T03:56:47;97984.69;;;0.78;67.33
84267;BME280;74414;51.098;13.716;2024-01-15T03:59:13;97984.31;;;0.79;67.45
84267;BME280;74414;51.098;13.716;2024-01-15T04:01:38;97971.78;;;0.75;68.15
84267;BME280;74414;51.098;13.716;2024-01-15T04:04:04;97982.91;;;0.70;68.07
84267;BME280;74414;51.098;13.716;2024-01-15T04:06:29;97971.06;;;0.62;68.40
84267;BME280;74414;51.098;13.716;2024-01-15T04:08:55;97975.63;;;0.58;68.45
84267;BME280;74414;51.098;13.716;2024-01-15T04:11:21;97977.91;;;0.56;68.45
84267;BME280;74414;51.098;13.716;2024-01-15T04:13:47;97973.25;;;0.57;68.49
84267;BME280;74414;51.098;13.716;2024-01-15T04:16:14;97966.13;;;0.52;68.71
84267;BME280;74414;51.098;13.716;2024-01-15T04:18:39;97964.94;;;0.50;68.66
84267;BME280;74414;51.098;13.716;2024-01-15T04:21:06;97972.72;;;0.51;68.57
84267;BME280;74414;51.098;13.716;2024-01-15T04:23:32;97961.31;;;0.46;68.78
84267;BME280;74414;51.098;13.716;2024-01-15T04:25:58;97967.13;;;0.44;68.38
84267;BME280;74414;51.098;13.716;2024-01-15T04:28:24;97954.63;;;0.43;69.20
84267;BME280;74414;51.098;13.716;2024-01-15T04:30:50;97952.34;;;0.45;68.57
84267;BME280;74414;51.098;13.716;2024-01-15T04:33:16;97953.16;;;0.46;68.15
84267;BME280;74414;51.098;13.716;2024-01-15T04:35:42;97955.97;;;0.49;68.08
84267;BME280;74414;51.098;13.716;2024-01-15T04:38:08;97949.72;;;0.49;67.85
84267;BME280;74414;51.098;13.716;2024-01-15T04:40:34;97956.03;;;0.53;67.49
84267;BME280;74414;51.098;13.716;2024-01-15T04:42:59;97952.63;;;0.56;66.97
84267;BME280;74414;51.098;13.716;2024-01-15T04:45:25;97963.53;;;0.56;67.13
84267;BME280;74414;51.098;13.716;2024-01-15T04:47:54;97948.91;;;0.48;67.34
84267;BME280;74414;51.098;13.716;2024-01-15T04:50:22;97949.28;;;0.47;66.90
84267;BME280;74414;51.098;13.716;2024-01-15T04:52:48;97946.19;;;0.48;66.82
84267;BME280;74414;51.098;13.716;2024-01-15T04:55:14;97940.94;;;0.40;67.29
84267;BME280;74414;51.098;13.716;2024-01-15T04:57:41;97944.25;;;0.33;67.06
84267;BME280;74414;51.098;13.716;2024-01-15T05:00:07;97951.28;;;0.19;67.51
84267;BME280;74414;51.098;13.716;2024-01-15T05:02:33;97951.19;;;0.15;67.06
84267;BME280;74414;51.098;13.716;2024-01-15T05:04:59;97949.88;;;0.09;67.33
84267;BME280;74414;51.098;13.716;2024-01-15T05:07:24;97958.91;;;0.13;67.31
84267;BME280;74414;51.098;13.716;2024-01-15T05:09:50;97959.16;;;0.08;67.70
84267;BME280;74414;51.098;13.716;2024-01-15T05:12:16;97945.06;;;0.18;67.00
84267;BME280;74414;51.098;13.716;2024-01-15T05:14:42;97957.84;;;0.18;67.38
84267;BME280;74414;51.098;13.716;2024-01-15T05:17:07;97954.69;;;0.16;67.41
84267;BME280;74414;51.098;13.716;2024-01-15T05:19:33;97963.91;;;0.11;67.46
84267;BME280;74414;51.098;13.716;2024-01-15T05:21:58;97967.53;;;0.15;67.22
84267;BME280;74414;51.098;13.716;2024-01-15T05:24:24;97971.84;;;0.32;66.91
84267;BME280;74414;51.098;13.716;2024-01-15T05:26:52;97963.84;;;0.39;66.89
84267;BME280;74414;51.098;13.716;2024-01-15T05:29:17;97973.59;;;0.40;66.77
84267;BME280;74414;51.098;13.716;2024-01-15T05:31:43;97958.50;;;0.42;66.47
84267;BME280;74414;51.098;13.716;2024-01-15T05:34:09;97961.84;;;0.36;66.83
84267;BME280;74414;51.098;13.716;2024-01-15T05:36:34;97960.44;;;0.26;67.13
84267;BME280;74414;51.098;13.716;2024-01-15T05:39:00;97970.69;;;0.17;66.69
84267;BME280;74414;51.098;13.716;2024-01-15T05:41:26;97969.97;;;0.20;66.34
84267;BME280;74414;51.098;13.716;2024-01-15T05:43:52;97968.66;;;0.14;66.43
84267;BME280;74414;51.098;13.716;2024-01-15T05:46:17;97972.03;;;0.23;66.65
84267;BME280;74414;51.098;13.716;2024-01-15T05:48:43;97982.03;;;0.35;66.34
84267;BME280;74414;51.098;13.716;2024-01-15T05:51:08;97980.81;;;0.48;65.34
84267;BME280;74414;51.098;13.716;2024-01-15T05:53:35;97980.19;;;0.54;65.26
84267;BME280;74414;51.098;13.716;2024-01-15T05:56:00;97976.69;;;0.54;64.89
84267;BME280;74414;51.098;13.716;2024-01-15T05:58:26;97980.53;;;0.53;65.43
84267;BME280;74414;51.098;13.716;2024-01-15T06:00:51;97986.00;;;0.53;65.08
84267;BME280;74414;51.098;13.716;2024-01-15T06:03:17;97982.91;;;0.54;64.60
84267;BME280;74414;51.098;13.716;2024-01-15T06:05:43;97979.06;;;0.55;65.32
84267;BME280;74414;51.098;13.716;2024-01-15T06:08:09;97969.75;;;0.56;65.75
84267;BME280;74414;51.098;13.716;2024-01-15T06:10:34;97962.44;;;0.76;64.54
84267;BME280;74414;51.098;13.716;2024-01-15T06:13:00;97974.13;;;0.76;64.22
84267;BME280;74414;51.098;13.716;2024-01-15T06:15:25;97960.16;;;0.78;63.79
84267;BME280;74414;51.098;13.716;2024-01-15T06:17:51;97954.03;;;0.81;64.04
84267;BME280;74414;51.098;13.716;2024-01-15T06:20:16;97950.06;;;0.78;63.79
84267;BME280;74414;51.098;13.716;2024-01-15T06:22:41;97956.03;;;0.68;63.74
84267;BME280;74414;51.098;13.716;2024-01-15T06:25:08;97939.53;;;0.61;63.73
84267;BME280;74414;51.098;13.716;2024-01-15T06:27:34;97950.34;;;0.58;63.55
84267;BME280;74414;51.098;13.716;2024-01-15T06:29:59;97947.28;;;0.59;63.08
84267;BME280;74414;51.098;13.716;2024-01-15T06:32:25;97942.19;;;0.58;63.55
84267;BME280;74414;51.098;13.716;2024-01-15T06:34:51;97940.94;;;0.55;63.44
84267;BME280;74414;51.098;13.716;2024-01-15T06:37:16;97945.16;;;0.53;63.91
84267;BME280;74414;51.098;13.716;2024-01-15T06:39:44;97951.75;;;0.52;64.22
84267;BME280;74414;51.098;13.716;2024-01-15T06:42:10;97930.75;;;0.52;63.44
84267;BME280;74414;51.098;13.716;2024-01-15T06:44:35;97938.47;;;0.50;63.25
84267;BME280;74414;51.098;13.716;2024-01-15T06:47:01;97940.75;;;0.48;64.11
84267;BME280;74414;51.098;13.716;2024-01-15T06:49:28;97957.09;;;0.48;63.73
84267;BME280;74414;51.098;13.716;2024-01-15T06:51:55;97938.81;;;0.49;64.36
84267;BME280;74414;51.098;13.716;2024-01-15T06:54:21;97940.75;;;0.48;64.31
84267;BME280;74414;51.098;13.716;2024-01-15T06:56:46;97956.31;;;0.48;64.01
84267;BME280;74414;51.098;13.716;2024-01-15T06:59:12;97960.09;;;0.43;64.06
84267;BME280;74414;51.098;13.716;2024-01-15T07:01:37;97949.56;;;0.42;64.23
84267;BME280;74414;51.098;13.716;2024-01-15T07:04:03;97955.34;;;0.40;63.93
84267;BME280;74414;51.098;13.716;2024-01-15T07:06:28;97950.34;;;0.42;63.91
84267;BME280;74414;51.098;13.716;2024-01-15T07:08:56;97945.34;;;0.44;63.95
84267;BME280;74414;51.098;13.716;2024-01-15T07:11:21;97952.78;;;0.47;64.09
84267;BME280;74414;51.098;13.716;2024-01-15T07:13:47;97953.69;;;0.51;64.39
84267;BME280;74414;51.098;13.716;2024-01-15T07:16:12;97958.09;;;0.56;64.05
84267;BME280;74414;51.098;13.716;2024-01-15T07:18:38;97971.34;;;0.57;63.39
84267;BME280;74414;51.098;13.716;2024-01-15T07:21:04;97980.63;;;0.56;63.15
84267;BME280;74414;51.098;13.716;2024-01-15T07:23:31;97979.16;;;0.59;63.47
84267;BME280;74414;51.098;13.716;2024-01-15T07:25:57;97981.44;;;0.57;63.26
84267;BME280;74414;51.098;13.716;2024-01-15T07:28:22;97994.97;;;0.53;63.54
84267;BME280;74414;51.098;13.716;2024-01-15T07:30:48;97998.38;;;0.50;63.92
84267;BME280;74414;51.098;13.716;2024-01-15T07:33:13;97987.47;;;0.50;64.45
84267;BME280;74414;51.098;13.716;2024-01-15T07:35:39;97991.63;;;0.44;64.74
84267;BME280;74414;51.098;13.716;2024-01-15T07:38:04;97991.06;;;0.39;65.16
84267;BME280;74414;51.098;13.716;2024-01-15T07:40:30;97994.59;;;0.39;64.76
84267;BME280;74414;51.098;13.716;2024-01-15T07:42:55;97990.63;;;0.37;65.38
84267;BME280;74414;51.098;13.716;2024-01-15T07:45:21;97983.88;;;0.31;64.80
84267;BME280;74414;51.098;13.716;2024-01-15T07:47:46;97994.84;;;0.34;64.90
84267;BME280;74414;51.098;13.716;2024-01-15T07:50:12;97988.25;;;0.35;65.09
84267;BME280;74414;51.098;13.716;2024-01-15T07:52:39;97987.56;;;0.38;64.88
84267;BME280;74414;51.098;13.716;2024-01-15T07:55:04;97991.88;;;0.39;63.87
84267;BME280;74414;51.098;13.716;2024-01-15T07:57:31;97984.59;;;0.43;64.18
84267;BME280;74414;51.098;13.716;2024-01-15T07:59:56;97979.66;;;0.49;63.73
84267;BME280;74414;51.098;13.716;2024-01-15T08:02:21;97986.00;;;0.53;63.94
84267;BME280;74414;51.098;13.716;2024-01-15T08:04:47;97986.53;;;0.58;63.66
84267;BME280;74414;51.098;13.716;2024-01-15T08:07:12;97975.25;;;0.60;63.26
84267;BME280;74414;51.098;13.716;2024-01-15T08:09:38;97981.06;;;0.58;62.95
84267;BME280;74414;51.098;13.716;2024-01-15T08:12:03;97988.19;;;0.63;63.33
84267;BME280;74414;51.098;13.716;2024-01-15T08:14:31;97998.50;;;0.69;62.84
84267;BME280;74414;51.098;13.716;2024-01-15T08:16:57;97987.41;;;0.62;62.54
84267;BME280;74414;51.098;13.716;2024-01-15T08:19:22;97992.03;;;0.62;62.75
84267;BME280;74414;51.098;13.716;2024-01-15T08:21:48;97988.63;;;0.65;62.56
84267;BME280;74414;51.098;13.716;2024-01-15T08:24:14;97995.66;;;0.66;63.43
84267;BME280;74414;51.098;13.716;2024-01-15T08:26:40;97988.34;;;0.70;62.78
84267;BME280;74414;51.098;13.716;2024-01-15T08:29:05;98003.56;;;0.71;62.52
84267;BME280;74414;51.098;13.716;2024-01-15T08:31:31;98002.25;;;0.80;62.53
84267;BME280;74414;51.098;13.716;2024-01-15T08:33:56;97991.28;;;0.77;62.18
84267;BME280;74414;51.098;13.716;2024-01-15T08:36:22;97990.41;;;0.73;62.06
84267;BME280;74414;51.098;13.716;2024-01-15T08:38:49;97995.56;;;0.78;62.04
84267;BME280;74414;51.098;13.716;2024-01-15T08:41:15;97996.97;;;0.87;62.36
84267;BME280;74414;51.098;13.716;2024-01-15T08:43:40;98005.66;;;0.93;61.73
84267;BME280;74414;51.098;13.716;2024-01-15T08:46:06;98003.91;;;1.01;61.29
84267;BME280;74414;51.098;13.716;2024-01-15T08:48:32;97999.09;;;1.44;60.41
84267;BME280;74414;51.098;13.716;2024-01-15T08:50:57;97999.38;;;1.58;59.56
84267;BME280;74414;51.098;13.716;2024-01-15T08:53:23;97987.66;;;1.39;59.99
84267;BME280;74414;51.098;13.716;2024-01-15T08:55:48;97978.06;;;1.29;60.56
84267;BME280;74414;51.098;13.716;2024-01-15T08:58:14;97990.50;;;1.27;60.21
84267;BME280;74414;51.098;13.716;2024-01-15T09:00:40;97995.66;;;1.32;60.09
84267;BME280;74414;51.098;13.716;2024-01-15T09:03:05;98006.25;;;1.18;60.49
84267;BME280;74414;51.098;13.716;2024-01-15T09:05:31;98007.94;;;1.07;61.07
84267;BME280;74414;51.098;13.716;2024-01-15T09:07:57;98001.81;;;0.94;60.84
84267;BME280;74414;51.098;13.716;2024-01-15T09:10:23;98005.75;;;0.97;61.61
84267;BME280;74414;51.098;13.716;2024-01-15T09:12:49;98001.66;;;1.22;60.74
84267;BME280;74414;51.098;13.716;2024-01-15T09:15:15;98007.44;;;2.50;57.97
84267;BME280;74414;51.098;13.716;2024-01-15T09:17:40;97977.81;;;3.24;54.24
84267;BME280;74414;51.098;13.716;2024-01-15T09:20:08;98019.44;;;4.62;51.45
84267;BME280;74414;51.098;13.716;2024-01-15T09:22:33;98000.19;;;4.99;49.34
84267;BME280;74414;51.098;13.716;2024-01-15T09:24:59;98006.53;;;6.47;46.60
84267;BME280;74414;51.098;13.716;2024-01-15T09:27:24;98008.44;;;6.28;45.47
84267;BME280;74414;51.098;13.716;2024-01-15T09:29:52;98007.78;;;5.16;48.31
84267;BME280;74414;51.098;13.716;2024-01-15T09:32:18;98000.81;;;5.90;47.40
84267;BME280;74414;51.098;13.716;2024-01-15T09:34:45;98005.41;;;7.60;42.71
84267;BME280;74414;51.098;13.716;2024-01-15T09:37:11;98011.69;;;7.68;41.89
84267;BME280;74414;51.098;13.716;2024-01-15T09:39:37;98008.31;;;9.05;39.46
84267;BME280;74414;51.098;13.716;2024-01-15T09:42:03;98013.41;;;5.95;45.04
84267;BME280;74414;51.098;13.716;2024-01-15T09:44:29;98004.22;;;4.68;48.65
84267;BME280;74414;51.098;13.716;2024-01-15T09:46:55;98003.47;;;4.01;50.21
84267;BME280;74414;51.098;13.716;2024-01-15T09:49:21;98023.66;;;3.34;52.13
84267;BME280;74414;51.098;13.716;2024-01-15T09:51:47;98006.56;;;3.96;51.57
84267;BME280;74414;51.098;13.716;2024-01-15T09:54:12;98011.91;;;8.22;42.91
84267;BME280;74414;51.098;13.716;2024-01-15T09:56:39;98012.88;;;9.26;38.57
84267;BME280;74414;51.098;13.716;2024-01-15T09:59:05;98000.22;;;6.39;43.77
84267;BME280;74414;51.098;13.716;2024-01-15T10:01:31;97994.09;;;4.76;48.27
84267;BME280;74414;51.098;13.716;2024-01-15T10:03:57;98003.69;;;3.56;51.41
84267;BME280;74414;51.098;13.716;2024-01-15T10:06:26;97996.91;;;3.76;52.22
84267;BME280;74414;51.098;13.716;2024-01-15T10:08:53;98004.38;;;8.37;42.23
84267;BME280;74414;51.098;13.716;2024-01-15T10:11:19;98002.06;;;10.23;37.18
84267;BME280;74414;51.098;13.716;2024-01-15T10:13:45;97986.28;;;8.98;37.92
84267;BME280;74414;51.098;13.716;2024-01-15T10:16:10;97998.13;;;8.95;38.51
84267;BME280;74414;51.098;13.716;2024-01-15T10:18:36;97985.72;;;7.72;40.63
84267;BME280;74414;51.098;13.716;2024-01-15T10:21:03;98000.31;;;9.21;38.85
84267;BME280;74414;51.098;13.716;2024-01-15T10:23:29;97984.81;;;9.34;37.87
84267;BME280;74414;51.098;13.716;2024-01-15T10:25:57;97979.84;;;8.57;39.04
84267;BME280;74414;51.098;13.716;2024-01-15T10:28:26;97976.88;;;8.23;39.94
84267;BME280;74414;51.098;13.716;2024-01-15T10:30:54;97996.38;;;6.96;42.02
84267;BME280;74414;51.098;13.716;2024-01-15T10:33:22;97982.97;;;6.49;43.90
84267;BME280;74414;51.098;13.716;2024-01-15T10:35:53;97990.91;;;6.82;42.95
84267;BME280;74414;51.098;13.716;2024-01-15T10:38:20;98000.06;;;6.00;44.15
84267;BME280;74414;51.098;13.716;2024-01-15T10:40:54;98002.06;;;4.88;47.45
84267;BME280;74414;51.098;13.716;2024-01-15T10:43:20;97977.97;;;4.27;48.97
84267;BME280;74414;51.098;13.716;2024-01-15T10:45:50;97977.25;;;4.00;50.24
84267;BME280;74414;51.098;13.716;2024-01-15T10:48:17;97965.47;;;4.70;48.69
84267;BME280;74414;51.098;13.716;2024-01-15T10:50:44;97985.19;;;5.40;47.40
84267;BME280;74414;51.098;13.716;2024-01-15T10:53:11;97997.47;;;7.94;41.74
84267;BME280;74414;51.098;13.716;2024-01-15T10:55:37;97981.63;;;9.36;38.52
84267;BME280;74414;51.098;13.716;2024-01-15T10:58:03;97991.13;;;8.00;39.68
84267;BME280;74414;51.098;13.716;2024-01-15T11:00:30;97981.75;;;7.73;41.25
84267;BME280;74414;51.098;13.716;2024-01-15T11:02:56;97995.19;;;7.50;41.35
84267;BME280;74414;51.098;13.716;2024-01-15T11:05:22;97976.94;;;6.05;44.38
84267;BME280;74414;51.098;13.716;2024-01-15T11:07:55;97979.91;;;7.21;42.83
84267;BME280;74414;51.098;13.716;2024-01-15T11:10:41;97973.81;;;6.10;44.47
84267;BME280;74414;51.098;13.716;2024-01-15T11:13:13;97991.16;;;6.31;44.40
84267;BME280;74414;51.098;13.716;2024-01-15T11:16:06;97982.63;;;5.07;46.56
84267;BME280;74414;51.098;13.716;2024-01-15T11:18:42;97970.44;;;5.04;46.99
84267;BME280;74414;51.098;13.716;2024-01-15T11:26:44;97969.91;;;3.75;50.48
84267;BME280;74414;51.098;13.716;2024-01-15T11:31:57;97964.75;;;2.88;53.16
84267;BME280;74414;51.098;13.716;2024-01-15T11:34:58;97977.88;;;3.27;52.81
84267;BME280;74414;51.098;13.716;2024-01-15T11:37:26;97951.72;;;3.89;51.22
84267;BME280;74414;51.098;13.716;2024-01-15T11:39:59;97957.22;;;4.26;50.20
84267;BME280;74414;51.098;13.716;2024-01-15T11:42:25;97947.41;;;4.65;48.83
84267;BME280;74414;51.098;13.716;2024-01-15T11:44:50;97952.75;;;7.23;44.01
84267;BME280;74414;51.098;13.716;2024-01-15T11:47:30;97950.31;;;7.64;42.24
84267;BME280;74414;51.098;13.716;2024-01-15T11:50:04;97970.53;;;8.95;39.25
84267;BME280;74414;51.098;13.716;2024-01-15T11:52:38;97942.47;;;7.45;41.71
84267;BME280;74414;51.098;13.716;2024-01-15T11:55:20;97948.81;;;6.57;44.16
84267;BME280;74414;51.098;13.716;2024-01-15T11:57:51;97959.06;;;6.74;43.62
84267;BME280;74414;51.098;13.716;2024-01-15T12:00:18;97963.66;;;6.21;44.57
84267;BME280;74414;51.098;13.716;2024-01-15T12:02:45;97948.75;;;6.25;44.69
84267;BME280;74414;51.098;13.716;2024-01-15T12:05:11;97955.31;;;5.93;45.27
84267;BME280;74414;51.098;13.716;2024-01-15T12:07:44;97939.06;;;4.51;48.40
84267;BME280;74414;51.098;13.716;2024-01-15T12:10:20;97955.50;;;3.78;50.60
84267;BME280;74414;51.098;13.716;2024-01-15T12:13:00;97951.03;;;3.36;52.51
84267;BME280;74414;51.098;13.716;2024-01-15T12:15:31;97948.16;;;3.26;53.20
84267;BME280;74414;51.098;13.716;2024-01-15T12:17:58;97946.72;;;3.09;53.85
84267;BME280;74414;51.098;13.716;2024-01-15T12:20:25;97942.44;;;2.86;54.22
84267;BME280;74414;51.098;13.716;2024-01-15T12:22:51;97949.88;;;2.62;55.58
84267;BME280;74414;51.098;13.716;2024-01-15T12:25:16;97944.91;;;2.91;54.88
84267;BME280;74414;51.098;13.716;2024-01-15T12:27:41;97926.91;;;3.45;54.09
84267;BME280;74414;51.098;13.716;2024-01-15T12:30:11;97941.72;;;3.41;53.66
84267;BME280;74414;51.098;13.716;2024-01-15T12:32:36;97932.25;;;3.35;53.76
84267;BME280;74414;51.098;13.716;2024-01-15T12:35:02;97934.69;;;4.06;52.65
84267;BME280;74414;51.098;13.716;2024-01-15T12:37:29;97944.38;;;4.33;51.58
84267;BME280;74414;51.098;13.716;2024-01-15T12:39:54;97951.22;;;3.50;53.15
84267;BME280;74414;51.098;13.716;2024-01-15T12:42:20;97934.38;;;2.93;55.32
84267;BME280;74414;51.098;13.716;2024-01-15T12:44:46;97932.72;;;2.62;56.48
84267;BME280;74414;51.098;13.716;2024-01-15T12:47:11;97932.13;;;2.49;56.91
84267;BME280;74414;51.098;13.716;2024-01-15T12:49:38;97934.00;;;2.45;57.04
84267;BME280;74414;51.098;13.716;2024-01-15T12:52:08;97940.19;;;2.42;57.41
84267;BME280;74414;51.098;13.716;2024-01-15T12:54:33;97930.84;;;2.43;57.64
84267;BME280;74414;51.098;13.716;2024-01-15T12:56:59;97935.16;;;2.44;57.95
84267;BME280;74414;51.098;13.716;2024-01-15T12:59:24;97938.00;;;2.51;58.51
84267;BME280;74414;51.098;13.716;2024-01-15T13:01:49;97929.50;;;2.56;58.54
84267;BME280;74414;51.098;13.716;2024-01-15T13:04:24;97932.38;;;2.90;57.81